sensor_id;sensor_type;location;lat;lon;timestamp;P1;durP1;ratioP1;P2;durP2;ratioP2
19780;SDS011;10050;55.492;13.506;2022-11-25T00:01:19;66.97;;;28.13;;
19780;SDS011;10050;55.492;13.506;2022-11-25T00:03:46;63.03;;;26.17;;
19780;SDS011;10050;55.492;13.506;2022-11-25T00:06:14;61.97;;;27.47;;
19780;SDS011;10050;55.492;13.506;2022-11-25T00:08:48;67.77;;;28.13;;
19780;SDS011;10050;55.492;13.506;2022-11-25T00:11:15;64.73;;;26.73;;
19780;SDS011;10050;55.492;13.506;2022-11-25T00:13:42;58.27;;;25.37;;
19780;SDS011;10050;55.492;13.506;2022-11-25T00:16:10;66.13;;;27.20;;
19780;SDS011;10050;55.492;13.506;2022-11-25T00:18:37;69.60;;;29.23;;
19780;SDS011;10050;55.492;13.506;2022-11-25T00:21:05;64.93;;;28.53;;
19780;SDS011;10050;55.492;13.506;2022-11-25T00:23:32;59.30;;;27.33;;
19780;SDS011;10050;55.492;13.506;2022-11-25T00:26:04;64.33;;;26.93;;
19780;SDS011;10050;55.492;13.506;2022-11-25T00:28:37;62.47;;;26.20;;
19780;SDS011;10050;55.492;13.506;2022-11-25T00:31:04;62.13;;;25.83;;
19780;SDS011;10050;55.492;13.506;2022-11-25T00:33:31;70.17;;;26.13;;
19780;SDS011;10050;55.492;13.506;2022-11-25T00:35:58;66.63;;;27.30;;
19780;SDS011;10050;55.492;13.506;2022-11-25T00:38:26;71.30;;;26.03;;
19780;SDS011;10050;55.492;13.506;2022-11-25T00:40:51;77.40;;;27.97;;
19780;SDS011;10050;55.492;13.506;2022-11-25T00:43:37;72.40;;;27.50;;
19780;SDS011;10050;55.492;13.506;2022-11-25T00:46:21;67.77;;;25.90;;
19780;SDS011;10050;55.492;13.506;2022-11-25T00:48:47;76.90;;;25.90;;
19780;SDS011;10050;55.492;13.506;2022-11-25T00:51:12;70.03;;;26.43;;
19780;SDS011;10050;55.492;13.506;2022-11-25T00:53:38;64.13;;;25.57;;
19780;SDS011;10050;55.492;13.506;2022-11-25T00:56:04;67.37;;;25.80;;
19780;SDS011;10050;55.492;13.506;2022-11-25T00:58:42;76.00;;;26.60;;
19780;SDS011;10050;55.492;13.506;2022-11-25T01:01:09;65.43;;;26.33;;
19780;SDS011;10050;55.492;13.506;2022-11-25T01:03:36;71.73;;;26.53;;
19780;SDS011;10050;55.492;13.506;2022-11-25T01:06:09;72.63;;;26.60;;
19780;SDS011;10050;55.492;13.506;2022-11-25T01:08:35;62.73;;;26.03;;
19780;SDS011;10050;55.492;13.506;2022-11-25T01:11:03;71.93;;;26.27;;
19780;SDS011;10050;55.492;13.506;2022-11-25T01:13:32;71.73;;;26.73;;
19780;SDS011;10050;55.492;13.506;2022-11-25T01:16:01;62.63;;;25.03;;
19780;SDS011;10050;55.492;13.506;2022-11-25T01:18:28;66.63;;;25.93;;
19780;SDS011;10050;55.492;13.506;2022-11-25T01:20:54;59.63;;;25.83;;
19780;SDS011;10050;55.492;13.506;2022-11-25T01:23:28;68.73;;;26.53;;
19780;SDS011;10050;55.492;13.506;2022-11-25T01:25:53;68.97;;;25.50;;
19780;SDS011;10050;55.492;13.506;2022-11-25T01:28:19;68.53;;;27.17;;
19780;SDS011;10050;55.492;13.506;2022-11-25T01:30:45;67.83;;;26.23;;
19780;SDS011;10050;55.492;13.506;2022-11-25T01:33:10;67.70;;;26.50;;
19780;SDS011;10050;55.492;13.506;2022-11-25T01:35:36;68.40;;;26.80;;
19780;SDS011;10050;55.492;13.506;2022-11-25T01:38:02;65.73;;;27.27;;
19780;SDS011;10050;55.492;13.506;2022-11-25T01:40:28;63.17;;;25.10;;
19780;SDS011;10050;55.492;13.506;2022-11-25T01:42:53;62.13;;;24.97;;
19780;SDS011;10050;55.492;13.506;2022-11-25T01:47:48;65.13;;;25.60;;
19780;SDS011;10050;55.492;13.506;2022-11-25T01:50:15;67.00;;;25.87;;
19780;SDS011;10050;55.492;13.506;2022-11-25T01:52:45;76.30;;;28.23;;
19780;SDS011;10050;55.492;13.506;2022-11-25T01:55:19;71.13;;;26.80;;
19780;SDS011;10050;55.492;13.506;2022-11-25T01:57:57;69.03;;;26.60;;
19780;SDS011;10050;55.492;13.506;2022-11-25T02:00:28;74.93;;;27.97;;
19780;SDS011;10050;55.492;13.506;2022-11-25T02:02:55;60.17;;;25.60;;
19780;SDS011;10050;55.492;13.506;2022-11-25T02:05:38;67.83;;;25.93;;
19780;SDS011;10050;55.492;13.506;2022-11-25T02:08:15;65.97;;;25.33;;
19780;SDS011;10050;55.492;13.506;2022-11-25T02:10:43;65.87;;;26.20;;
19780;SDS011;10050;55.492;13.506;2022-11-25T02:13:10;69.53;;;25.33;;
19780;SDS011;10050;55.492;13.506;2022-11-25T02:15:36;62.17;;;24.83;;
19780;SDS011;10050;55.492;13.506;2022-11-25T02:18:03;65.40;;;24.87;;
19780;SDS011;10050;55.492;13.506;2022-11-25T02:20:29;68.90;;;27.43;;
19780;SDS011;10050;55.492;13.506;2022-11-25T02:25:46;68.23;;;26.97;;
19780;SDS011;10050;55.492;13.506;2022-11-25T02:28:14;63.03;;;26.20;;
19780;SDS011;10050;55.492;13.506;2022-11-25T02:30:42;70.73;;;26.17;;
19780;SDS011;10050;55.492;13.506;2022-11-25T02:33:09;64.70;;;25.40;;
19780;SDS011;10050;55.492;13.506;2022-11-25T02:35:36;57.00;;;24.83;;
19780;SDS011;10050;55.492;13.506;2022-11-25T02:40:35;52.80;;;22.37;;
19780;SDS011;10050;55.492;13.506;2022-11-25T02:43:10;57.70;;;23.83;;
19780;SDS011;10050;55.492;13.506;2022-11-25T02:48:10;63.40;;;27.00;;
19780;SDS011;10050;55.492;13.506;2022-11-25T02:50:36;65.50;;;26.07;;
19780;SDS011;10050;55.492;13.506;2022-11-25T02:53:02;60.60;;;26.47;;
19780;SDS011;10050;55.492;13.506;2022-11-25T02:55:28;66.93;;;26.87;;
19780;SDS011;10050;55.492;13.506;2022-11-25T02:57:53;64.33;;;25.00;;
19780;SDS011;10050;55.492;13.506;2022-11-25T03:00:19;57.43;;;25.30;;
19780;SDS011;10050;55.492;13.506;2022-11-25T03:02:45;55.97;;;22.93;;
19780;SDS011;10050;55.492;13.506;2022-11-25T03:05:11;56.90;;;25.40;;
19780;SDS011;10050;55.492;13.506;2022-11-25T03:07:37;66.00;;;26.10;;
19780;SDS011;10050;55.492;13.506;2022-11-25T03:10:03;62.17;;;25.17;;
19780;SDS011;10050;55.492;13.506;2022-11-25T03:12:29;59.33;;;23.70;;
19780;SDS011;10050;55.492;13.506;2022-11-25T03:14:55;65.23;;;26.57;;
19780;SDS011;10050;55.492;13.506;2022-11-25T03:17:21;66.30;;;25.53;;
19780;SDS011;10050;55.492;13.506;2022-11-25T03:19:47;61.73;;;25.10;;
19780;SDS011;10050;55.492;13.506;2022-11-25T03:22:12;59.00;;;25.63;;
19780;SDS011;10050;55.492;13.506;2022-11-25T03:24:38;57.70;;;24.93;;
19780;SDS011;10050;55.492;13.506;2022-11-25T03:27:03;61.67;;;25.23;;
19780;SDS011;10050;55.492;13.506;2022-11-25T03:29:29;64.47;;;25.23;;
19780;SDS011;10050;55.492;13.506;2022-11-25T03:31:54;58.83;;;23.20;;
19780;SDS011;10050;55.492;13.506;2022-11-25T03:34:20;65.43;;;24.93;;
19780;SDS011;10050;55.492;13.506;2022-11-25T03:36:46;55.03;;;23.57;;
19780;SDS011;10050;55.492;13.506;2022-11-25T03:39:12;57.47;;;24.50;;
19780;SDS011;10050;55.492;13.506;2022-11-25T03:41:37;63.90;;;25.73;;
19780;SDS011;10050;55.492;13.506;2022-11-25T03:44:03;58.80;;;25.07;;
19780;SDS011;10050;55.492;13.506;2022-11-25T03:46:29;52.17;;;23.13;;
19780;SDS011;10050;55.492;13.506;2022-11-25T03:48:54;59.87;;;24.00;;
19780;SDS011;10050;55.492;13.506;2022-11-25T03:51:20;52.37;;;23.47;;
19780;SDS011;10050;55.492;13.506;2022-11-25T03:53:45;59.90;;;24.30;;
19780;SDS011;10050;55.492;13.506;2022-11-25T03:56:11;55.43;;;22.47;;
19780;SDS011;10050;55.492;13.506;2022-11-25T03:58:37;59.73;;;22.97;;
19780;SDS011;10050;55.492;13.506;2022-11-25T04:01:03;54.80;;;24.67;;
19780;SDS011;10050;55.492;13.506;2022-11-25T04:03:28;55.97;;;23.33;;
19780;SDS011;10050;55.492;13.506;2022-11-25T04:05:54;50.63;;;22.40;;
19780;SDS011;10050;55.492;13.506;2022-11-25T04:08:20;45.60;;;20.63;;
19780;SDS011;10050;55.492;13.506;2022-11-25T04:10:48;48.00;;;20.70;;
19780;SDS011;10050;55.492;13.506;2022-11-25T04:13:14;43.50;;;20.17;;
19780;SDS011;10050;55.492;13.506;2022-11-25T04:15:43;43.60;;;20.43;;
19780;SDS011;10050;55.492;13.506;2022-11-25T04:18:13;47.60;;;21.00;;
19780;SDS011;10050;55.492;13.506;2022-11-25T04:20:39;46.43;;;22.40;;
19780;SDS011;10050;55.492;13.506;2022-11-25T04:23:05;45.93;;;21.83;;
19780;SDS011;10050;55.492;13.506;2022-11-25T04:25:31;50.07;;;22.20;;
19780;SDS011;10050;55.492;13.506;2022-11-25T04:27:57;49.50;;;23.53;;
19780;SDS011;10050;55.492;13.506;2022-11-25T04:30:23;53.90;;;22.57;;
19780;SDS011;10050;55.492;13.506;2022-11-25T04:32:49;41.27;;;19.50;;
19780;SDS011;10050;55.492;13.506;2022-11-25T04:35:14;43.07;;;20.87;;
19780;SDS011;10050;55.492;13.506;2022-11-25T04:37:40;52.20;;;21.33;;
19780;SDS011;10050;55.492;13.506;2022-11-25T04:40:06;50.70;;;22.27;;
19780;SDS011;10050;55.492;13.506;2022-11-25T04:42:32;49.77;;;21.13;;
19780;SDS011;10050;55.492;13.506;2022-11-25T04:45:01;46.70;;;23.03;;
19780;SDS011;10050;55.492;13.506;2022-11-25T04:47:31;50.47;;;22.30;;
19780;SDS011;10050;55.492;13.506;2022-11-25T04:49:57;48.00;;;22.10;;
19780;SDS011;10050;55.492;13.506;2022-11-25T04:52:23;44.77;;;20.90;;
19780;SDS011;10050;55.492;13.506;2022-11-25T04:54:48;47.87;;;21.20;;
19780;SDS011;10050;55.492;13.506;2022-11-25T04:57:14;55.67;;;22.43;;
19780;SDS011;10050;55.492;13.506;2022-11-25T04:59:41;52.03;;;22.87;;
19780;SDS011;10050;55.492;13.506;2022-11-25T05:02:20;51.20;;;22.33;;
19780;SDS011;10050;55.492;13.506;2022-11-25T05:04:48;52.40;;;23.60;;
19780;SDS011;10050;55.492;13.506;2022-11-25T05:07:16;55.47;;;22.53;;
19780;SDS011;10050;55.492;13.506;2022-11-25T05:09:43;48.37;;;22.63;;
19780;SDS011;10050;55.492;13.506;2022-11-25T05:12:10;57.40;;;24.33;;
19780;SDS011;10050;55.492;13.506;2022-11-25T05:14:37;61.10;;;25.07;;
19780;SDS011;10050;55.492;13.506;2022-11-25T05:17:03;58.53;;;25.90;;
19780;SDS011;10050;55.492;13.506;2022-11-25T05:19:30;71.27;;;24.13;;
19780;SDS011;10050;55.492;13.506;2022-11-25T05:21:57;56.60;;;22.77;;
19780;SDS011;10050;55.492;13.506;2022-11-25T05:24:23;59.80;;;23.20;;
19780;SDS011;10050;55.492;13.506;2022-11-25T05:26:49;71.93;;;25.73;;
19780;SDS011;10050;55.492;13.506;2022-11-25T05:29:15;63.17;;;24.23;;
19780;SDS011;10050;55.492;13.506;2022-11-25T05:31:41;68.13;;;25.33;;
19780;SDS011;10050;55.492;13.506;2022-11-25T05:34:07;71.50;;;24.30;;
19780;SDS011;10050;55.492;13.506;2022-11-25T05:36:32;65.20;;;24.27;;
19780;SDS011;10050;55.492;13.506;2022-11-25T05:38:59;67.50;;;24.87;;
19780;SDS011;10050;55.492;13.506;2022-11-25T05:41:24;67.83;;;24.90;;
19780;SDS011;10050;55.492;13.506;2022-11-25T05:43:50;72.47;;;25.37;;
19780;SDS011;10050;55.492;13.506;2022-11-25T05:46:16;77.83;;;26.57;;
19780;SDS011;10050;55.492;13.506;2022-11-25T05:48:42;60.43;;;24.63;;
19780;SDS011;10050;55.492;13.506;2022-11-25T05:51:07;60.70;;;22.17;;
19780;SDS011;10050;55.492;13.506;2022-11-25T05:53:33;65.10;;;23.93;;
19780;SDS011;10050;55.492;13.506;2022-11-25T05:56:00;66.97;;;24.23;;
19780;SDS011;10050;55.492;13.506;2022-11-25T05:58:28;80.67;;;28.23;;
19780;SDS011;10050;55.492;13.506;2022-11-25T06:00:55;69.90;;;27.80;;
19780;SDS011;10050;55.492;13.506;2022-11-25T06:03:25;66.57;;;25.80;;
19780;SDS011;10050;55.492;13.506;2022-11-25T06:05:55;67.87;;;26.73;;
19780;SDS011;10050;55.492;13.506;2022-11-25T06:08:21;64.70;;;25.63;;
19780;SDS011;10050;55.492;13.506;2022-11-25T06:10:47;69.33;;;27.37;;
19780;SDS011;10050;55.492;13.506;2022-11-25T06:13:14;69.07;;;27.63;;
19780;SDS011;10050;55.492;13.506;2022-11-25T06:15:40;74.43;;;25.83;;
19780;SDS011;10050;55.492;13.506;2022-11-25T06:18:07;69.10;;;27.03;;
19780;SDS011;10050;55.492;13.506;2022-11-25T06:20:33;67.53;;;27.00;;
19780;SDS011;10050;55.492;13.506;2022-11-25T06:22:59;69.57;;;26.60;;
19780;SDS011;10050;55.492;13.506;2022-11-25T06:25:25;69.47;;;26.90;;
19780;SDS011;10050;55.492;13.506;2022-11-25T06:27:51;56.80;;;25.10;;
19780;SDS011;10050;55.492;13.506;2022-11-25T06:30:17;56.33;;;22.40;;
19780;SDS011;10050;55.492;13.506;2022-11-25T06:32:43;61.50;;;25.20;;
19780;SDS011;10050;55.492;13.506;2022-11-25T06:35:09;59.77;;;25.33;;
19780;SDS011;10050;55.492;13.506;2022-11-25T06:37:35;61.07;;;24.50;;
19780;SDS011;10050;55.492;13.506;2022-11-25T06:40:02;52.70;;;21.63;;
19780;SDS011;10050;55.492;13.506;2022-11-25T06:42:28;57.73;;;22.23;;
19780;SDS011;10050;55.492;13.506;2022-11-25T06:44:54;52.23;;;21.13;;
19780;SDS011;10050;55.492;13.506;2022-11-25T06:47:19;49.80;;;19.93;;
19780;SDS011;10050;55.492;13.506;2022-11-25T06:49:45;47.03;;;19.57;;
19780;SDS011;10050;55.492;13.506;2022-11-25T06:52:10;50.17;;;22.13;;
19780;SDS011;10050;55.492;13.506;2022-11-25T06:54:36;55.40;;;22.80;;
19780;SDS011;10050;55.492;13.506;2022-11-25T06:57:09;51.93;;;23.13;;
19780;SDS011;10050;55.492;13.506;2022-11-25T06:59:35;54.00;;;22.23;;
19780;SDS011;10050;55.492;13.506;2022-11-25T07:02:01;50.10;;;21.10;;
19780;SDS011;10050;55.492;13.506;2022-11-25T07:04:28;55.40;;;25.42;;
19780;SDS011;10050;55.492;13.506;2022-11-25T07:06:53;49.17;;;20.77;;
19780;SDS011;10050;55.492;13.506;2022-11-25T07:09:19;45.00;;;19.33;;
19780;SDS011;10050;55.492;13.506;2022-11-25T07:11:46;41.27;;;18.03;;
19780;SDS011;10050;55.492;13.506;2022-11-25T07:14:14;46.17;;;17.83;;
19780;SDS011;10050;55.492;13.506;2022-11-25T07:16:41;43.17;;;17.40;;
19780;SDS011;10050;55.492;13.506;2022-11-25T07:19:09;37.23;;;16.03;;
19780;SDS011;10050;55.492;13.506;2022-11-25T07:21:36;45.70;;;19.87;;
19780;SDS011;10050;55.492;13.506;2022-11-25T07:24:03;39.07;;;18.57;;
19780;SDS011;10050;55.492;13.506;2022-11-25T07:26:32;42.60;;;17.90;;
19780;SDS011;10050;55.492;13.506;2022-11-25T07:29:03;41.00;;;17.97;;
19780;SDS011;10050;55.492;13.506;2022-11-25T07:31:32;41.10;;;17.13;;
19780;SDS011;10050;55.492;13.506;2022-11-25T07:34:05;40.87;;;18.17;;
19780;SDS011;10050;55.492;13.506;2022-11-25T07:36:34;42.93;;;19.13;;
19780;SDS011;10050;55.492;13.506;2022-11-25T07:39:01;38.10;;;18.43;;
19780;SDS011;10050;55.492;13.506;2022-11-25T07:41:29;40.10;;;18.70;;
19780;SDS011;10050;55.492;13.506;2022-11-25T07:43:56;43.00;;;19.37;;
19780;SDS011;10050;55.492;13.506;2022-11-25T07:46:24;47.50;;;18.67;;
19780;SDS011;10050;55.492;13.506;2022-11-25T07:48:51;40.80;;;18.33;;
19780;SDS011;10050;55.492;13.506;2022-11-25T07:51:19;41.60;;;18.60;;
19780;SDS011;10050;55.492;13.506;2022-11-25T07:53:53;38.67;;;17.37;;
19780;SDS011;10050;55.492;13.506;2022-11-25T07:56:20;40.63;;;18.27;;
19780;SDS011;10050;55.492;13.506;2022-11-25T07:58:46;44.70;;;18.73;;
19780;SDS011;10050;55.492;13.506;2022-11-25T08:01:12;39.40;;;18.57;;
19780;SDS011;10050;55.492;13.506;2022-11-25T08:03:40;43.67;;;19.40;;
19780;SDS011;10050;55.492;13.506;2022-11-25T08:06:08;41.53;;;20.27;;
19780;SDS011;10050;55.492;13.506;2022-11-25T08:08:35;39.43;;;18.87;;
19780;SDS011;10050;55.492;13.506;2022-11-25T08:11:05;44.40;;;21.20;;
19780;SDS011;10050;55.492;13.506;2022-11-25T08:13:32;43.03;;;20.90;;
19780;SDS011;10050;55.492;13.506;2022-11-25T08:15:58;37.20;;;19.33;;
19780;SDS011;10050;55.492;13.506;2022-11-25T08:18:24;42.00;;;19.73;;
19780;SDS011;10050;55.492;13.506;2022-11-25T08:20:50;44.23;;;18.60;;
19780;SDS011;10050;55.492;13.506;2022-11-25T08:23:16;42.83;;;19.13;;
19780;SDS011;10050;55.492;13.506;2022-11-25T08:25:42;40.47;;;19.37;;
19780;SDS011;10050;55.492;13.506;2022-11-25T08:28:08;40.97;;;20.00;;
19780;SDS011;10050;55.492;13.506;2022-11-25T08:30:34;41.17;;;18.73;;
19780;SDS011;10050;55.492;13.506;2022-11-25T08:33:00;37.33;;;19.17;;
19780;SDS011;10050;55.492;13.506;2022-11-25T08:35:26;37.77;;;17.37;;
19780;SDS011;10050;55.492;13.506;2022-11-25T08:37:52;35.67;;;16.23;;
19780;SDS011;10050;55.492;13.506;2022-11-25T08:40:18;35.27;;;17.17;;
19780;SDS011;10050;55.492;13.506;2022-11-25T08:42:43;37.07;;;17.00;;
19780;SDS011;10050;55.492;13.506;2022-11-25T08:45:09;34.17;;;18.03;;
19780;SDS011;10050;55.492;13.506;2022-11-25T08:47:36;31.87;;;17.67;;
19780;SDS011;10050;55.492;13.506;2022-11-25T08:50:04;34.60;;;17.83;;
19780;SDS011;10050;55.492;13.506;2022-11-25T08:52:32;31.73;;;16.30;;
19780;SDS011;10050;55.492;13.506;2022-11-25T08:54:58;35.07;;;16.33;;
19780;SDS011;10050;55.492;13.506;2022-11-25T08:57:24;28.30;;;15.97;;
19780;SDS011;10050;55.492;13.506;2022-11-25T08:59:49;29.43;;;15.37;;
19780;SDS011;10050;55.492;13.506;2022-11-25T09:02:16;28.17;;;15.30;;
19780;SDS011;10050;55.492;13.506;2022-11-25T09:04:42;32.97;;;15.93;;
19780;SDS011;10050;55.492;13.506;2022-11-25T09:07:08;28.23;;;14.93;;
19780;SDS011;10050;55.492;13.506;2022-11-25T09:09:33;26.97;;;14.50;;
19780;SDS011;10050;55.492;13.506;2022-11-25T09:11:59;27.93;;;15.20;;
19780;SDS011;10050;55.492;13.506;2022-11-25T09:14:24;30.93;;;15.53;;
19780;SDS011;10050;55.492;13.506;2022-11-25T09:16:50;28.23;;;15.63;;
19780;SDS011;10050;55.492;13.506;2022-11-25T09:19:16;28.03;;;15.90;;
19780;SDS011;10050;55.492;13.506;2022-11-25T09:21:42;25.87;;;14.47;;
19780;SDS011;10050;55.492;13.506;2022-11-25T09:24:08;32.17;;;14.63;;
19780;SDS011;10050;55.492;13.506;2022-11-25T09:26:33;26.47;;;15.07;;
19780;SDS011;10050;55.492;13.506;2022-11-25T09:28:59;31.50;;;16.13;;
19780;SDS011;10050;55.492;13.506;2022-11-25T09:31:25;26.20;;;15.13;;
19780;SDS011;10050;55.492;13.506;2022-11-25T09:33:50;27.27;;;15.30;;
19780;SDS011;10050;55.492;13.506;2022-11-25T09:36:17;25.20;;;15.47;;
19780;SDS011;10050;55.492;13.506;2022-11-25T09:38:44;28.30;;;16.07;;
19780;SDS011;10050;55.492;13.506;2022-11-25T09:47:32;27.33;;;15.57;;
19780;SDS011;10050;55.492;13.506;2022-11-25T09:55:35;35.43;;;18.87;;
19780;SDS011;10050;55.492;13.506;2022-11-25T09:58:18;33.97;;;16.80;;
19780;SDS011;10050;55.492;13.506;2022-11-25T10:00:59;26.67;;;14.03;;
19780;SDS011;10050;55.492;13.506;2022-11-25T10:03:35;24.83;;;13.73;;
19780;SDS011;10050;55.492;13.506;2022-11-25T10:06:06;27.10;;;14.90;;
19780;SDS011;10050;55.492;13.506;2022-11-25T10:08:39;29.47;;;14.67;;
19780;SDS011;10050;55.492;13.506;2022-11-25T10:11:27;25.00;;;14.17;;
19780;SDS011;10050;55.492;13.506;2022-11-25T10:16:49;23.17;;;13.73;;
19780;SDS011;10050;55.492;13.506;2022-11-25T10:24:50;22.83;;;13.90;;
19780;SDS011;10050;55.492;13.506;2022-11-25T10:27:37;24.10;;;13.97;;
19780;SDS011;10050;55.492;13.506;2022-11-25T10:30:16;22.80;;;14.03;;
19780;SDS011;10050;55.492;13.506;2022-11-25T10:32:52;25.13;;;14.63;;
19780;SDS011;10050;55.492;13.506;2022-11-25T10:35:32;26.60;;;14.20;;
19780;SDS011;10050;55.492;13.506;2022-11-25T10:38:04;26.87;;;14.97;;
19780;SDS011;10050;55.492;13.506;2022-11-25T10:40:36;26.73;;;14.40;;
19780;SDS011;10050;55.492;13.506;2022-11-25T10:43:07;25.73;;;14.60;;
19780;SDS011;10050;55.492;13.506;2022-11-25T10:45:40;20.77;;;12.87;;
19780;SDS011;10050;55.492;13.506;2022-11-25T10:53:36;23.97;;;11.50;;
19780;SDS011;10050;55.492;13.506;2022-11-25T10:56:03;23.27;;;12.70;;
19780;SDS011;10050;55.492;13.506;2022-11-25T10:58:35;22.20;;;12.33;;
19780;SDS011;10050;55.492;13.506;2022-11-25T11:01:04;22.03;;;11.37;;
19780;SDS011;10050;55.492;13.506;2022-11-25T11:03:37;23.47;;;12.03;;
19780;SDS011;10050;55.492;13.506;2022-11-25T11:06:03;21.37;;;12.17;;
19780;SDS011;10050;55.492;13.506;2022-11-25T11:08:47;23.73;;;12.03;;
19780;SDS011;10050;55.492;13.506;2022-11-25T11:11:19;21.30;;;12.13;;
19780;SDS011;10050;55.492;13.506;2022-11-25T11:13:47;20.83;;;12.03;;
19780;SDS011;10050;55.492;13.506;2022-11-25T11:19:00;17.07;;;11.77;;
19780;SDS011;10050;55.492;13.506;2022-11-25T11:24:00;21.17;;;13.40;;
19780;SDS011;10050;55.492;13.506;2022-11-25T11:26:28;21.33;;;12.50;;
19780;SDS011;10050;55.492;13.506;2022-11-25T11:29:00;23.93;;;12.67;;
19780;SDS011;10050;55.492;13.506;2022-11-25T11:31:32;22.60;;;13.33;;
19780;SDS011;10050;55.492;13.506;2022-11-25T11:45:34;20.87;;;11.83;;
19780;SDS011;10050;55.492;13.506;2022-11-25T11:48:11;18.23;;;11.63;;
19780;SDS011;10050;55.492;13.506;2022-11-25T11:54:04;19.03;;;11.67;;
19780;SDS011;10050;55.492;13.506;2022-11-25T11:56:36;18.60;;;11.97;;
19780;SDS011;10050;55.492;13.506;2022-11-25T12:04:40;19.60;;;12.33;;
19780;SDS011;10050;55.492;13.506;2022-11-25T12:12:54;18.50;;;10.73;;
19780;SDS011;10050;55.492;13.506;2022-11-25T12:18:15;21.87;;;12.47;;
19780;SDS011;10050;55.492;13.506;2022-11-25T12:21:00;17.30;;;10.80;;
19780;SDS011;10050;55.492;13.506;2022-11-25T12:23:30;23.07;;;13.07;;
19780;SDS011;10050;55.492;13.506;2022-11-25T12:26:10;22.87;;;12.17;;
19780;SDS011;10050;55.492;13.506;2022-11-25T12:28:47;17.83;;;12.13;;
19780;SDS011;10050;55.492;13.506;2022-11-25T12:31:23;21.17;;;12.73;;
19780;SDS011;10050;55.492;13.506;2022-11-25T12:34:35;22.07;;;12.13;;
19780;SDS011;10050;55.492;13.506;2022-11-25T12:37:13;24.17;;;13.23;;
19780;SDS011;10050;55.492;13.506;2022-11-25T12:39:51;21.27;;;12.60;;
19780;SDS011;10050;55.492;13.506;2022-11-25T12:42:24;21.67;;;12.77;;
19780;SDS011;10050;55.492;13.506;2022-11-25T12:47:24;21.30;;;12.53;;
19780;SDS011;10050;55.492;13.506;2022-11-25T12:49:51;22.77;;;11.87;;
19780;SDS011;10050;55.492;13.506;2022-11-25T12:52:22;20.07;;;11.40;;
19780;SDS011;10050;55.492;13.506;2022-11-25T13:12:14;23.77;;;12.20;;
19780;SDS011;10050;55.492;13.506;2022-11-25T13:17:44;19.20;;;11.33;;
19780;SDS011;10050;55.492;13.506;2022-11-25T13:23:38;19.47;;;11.83;;
19780;SDS011;10050;55.492;13.506;2022-11-25T13:25:43;15.50;;;10.57;;
19780;SDS011;10050;55.492;13.506;2022-11-25T13:31:15;16.23;;;10.80;;
19780;SDS011;10050;55.492;13.506;2022-11-25T13:36:19;16.97;;;10.57;;
19780;SDS011;10050;55.492;13.506;2022-11-25T13:44:01;17.87;;;11.20;;
19780;SDS011;10050;55.492;13.506;2022-11-25T13:46:52;19.97;;;12.23;;
19780;SDS011;10050;55.492;13.506;2022-11-25T13:54:47;20.10;;;12.07;;
19780;SDS011;10050;55.492;13.506;2022-11-25T13:57:17;19.40;;;12.20;;
19780;SDS011;10050;55.492;13.506;2022-11-25T14:08:17;24.73;;;14.80;;
19780;SDS011;10050;55.492;13.506;2022-11-25T14:13:59;17.67;;;12.00;;
19780;SDS011;10050;55.492;13.506;2022-11-25T14:25:26;21.90;;;13.67;;
19780;SDS011;10050;55.492;13.506;2022-11-25T14:28:40;24.43;;;14.33;;
19780;SDS011;10050;55.492;13.506;2022-11-25T14:30:49;23.03;;;13.93;;
19780;SDS011;10050;55.492;13.506;2022-11-25T14:33:18;22.60;;;14.17;;
19780;SDS011;10050;55.492;13.506;2022-11-25T14:35:50;21.00;;;13.57;;
19780;SDS011;10050;55.492;13.506;2022-11-25T14:38:21;22.93;;;14.10;;
19780;SDS011;10050;55.492;13.506;2022-11-25T14:41:07;24.00;;;14.03;;
19780;SDS011;10050;55.492;13.506;2022-11-25T14:43:38;26.07;;;14.37;;
19780;SDS011;10050;55.492;13.506;2022-11-25T14:46:10;22.20;;;13.40;;
19780;SDS011;10050;55.492;13.506;2022-11-25T14:48:41;24.27;;;13.53;;
19780;SDS011;10050;55.492;13.506;2022-11-25T14:51:08;20.10;;;13.00;;
19780;SDS011;10050;55.492;13.506;2022-11-25T14:53:42;25.10;;;13.60;;
19780;SDS011;10050;55.492;13.506;2022-11-25T14:56:10;25.50;;;14.17;;
19780;SDS011;10050;55.492;13.506;2022-11-25T14:58:40;22.77;;;13.67;;
19780;SDS011;10050;55.492;13.506;2022-11-25T15:01:17;25.33;;;14.07;;
19780;SDS011;10050;55.492;13.506;2022-11-25T15:03:48;25.97;;;14.23;;
19780;SDS011;10050;55.492;13.506;2022-11-25T15:06:15;23.87;;;14.87;;
19780;SDS011;10050;55.492;13.506;2022-11-25T15:08:53;28.87;;;16.07;;
19780;SDS011;10050;55.492;13.506;2022-11-25T15:11:21;26.23;;;15.20;;
19780;SDS011;10050;55.492;13.506;2022-11-25T15:13:54;25.60;;;15.70;;
19780;SDS011;10050;55.492;13.506;2022-11-25T15:16:39;28.97;;;15.57;;
19780;SDS011;10050;55.492;13.506;2022-11-25T15:19:17;29.53;;;16.47;;
19780;SDS011;10050;55.492;13.506;2022-11-25T15:21:45;28.50;;;18.00;;
19780;SDS011;10050;55.492;13.506;2022-11-25T15:24:21;28.90;;;18.50;;
19780;SDS011;10050;55.492;13.506;2022-11-25T15:26:50;24.60;;;15.63;;
19780;SDS011;10050;55.492;13.506;2022-11-25T15:29:17;26.70;;;15.57;;
19780;SDS011;10050;55.492;13.506;2022-11-25T15:31:43;22.57;;;14.57;;
19780;SDS011;10050;55.492;13.506;2022-11-25T15:34:10;23.63;;;14.63;;
19780;SDS011;10050;55.492;13.506;2022-11-25T15:36:38;23.57;;;13.17;;
19780;SDS011;10050;55.492;13.506;2022-11-25T15:41:51;26.30;;;13.83;;
19780;SDS011;10050;55.492;13.506;2022-11-25T15:44:32;20.20;;;12.13;;
19780;SDS011;10050;55.492;13.506;2022-11-25T15:49:53;20.83;;;11.90;;
19780;SDS011;10050;55.492;13.506;2022-11-25T15:52:22;21.43;;;12.83;;
19780;SDS011;10050;55.492;13.506;2022-11-25T15:54:49;24.27;;;14.23;;
19780;SDS011;10050;55.492;13.506;2022-11-25T15:57:17;22.73;;;13.13;;
19780;SDS011;10050;55.492;13.506;2022-11-25T16:05:12;23.27;;;13.23;;
19780;SDS011;10050;55.492;13.506;2022-11-25T16:10:25;22.73;;;12.83;;
19780;SDS011;10050;55.492;13.506;2022-11-25T16:21:19;21.77;;;11.80;;
19780;SDS011;10050;55.492;13.506;2022-11-25T16:26:34;25.10;;;12.93;;
19780;SDS011;10050;55.492;13.506;2022-11-25T16:29:12;22.83;;;13.57;;
19780;SDS011;10050;55.492;13.506;2022-11-25T16:31:41;22.87;;;12.30;;
19780;SDS011;10050;55.492;13.506;2022-11-25T16:34:15;23.13;;;12.57;;
19780;SDS011;10050;55.492;13.506;2022-11-25T16:36:43;23.80;;;13.60;;
19780;SDS011;10050;55.492;13.506;2022-11-25T16:39:09;21.80;;;12.77;;
19780;SDS011;10050;55.492;13.506;2022-11-25T16:41:35;22.53;;;12.70;;
19780;SDS011;10050;55.492;13.506;2022-11-25T16:44:03;23.23;;;12.33;;
19780;SDS011;10050;55.492;13.506;2022-11-25T16:46:29;25.43;;;13.47;;
19780;SDS011;10050;55.492;13.506;2022-11-25T16:48:55;21.47;;;13.03;;
19780;SDS011;10050;55.492;13.506;2022-11-25T16:51:21;21.80;;;12.23;;
19780;SDS011;10050;55.492;13.506;2022-11-25T16:53:49;21.83;;;12.67;;
19780;SDS011;10050;55.492;13.506;2022-11-25T16:56:17;24.00;;;12.53;;